createdAt,value
2019-03-12T00:54:54.797Z,3.20
2019-03-12T00:57:23.338Z,3.20
2019-03-12T05:49:12.064Z,3.30
2019-03-12T05:56:37.101Z,3.40
2019-03-12T08:49:28.578Z,4.90
2019-03-12T08:51:58.766Z,5.00
2019-03-12T10:01:30.707Z,6.10
2019-03-12T10:04:00.966Z,6.20
2019-03-12T10:16:48.134Z,6.80
2019-03-12T10:19:24.041Z,6.80
2019-03-12T10:21:56.990Z,7.10
2019-03-12T10:24:35.646Z,7.20
2019-03-12T10:27:22.334Z,7.60
2019-03-12T10:29:52.514Z,7.60
2019-03-12T10:32:22.727Z,7.70
2019-03-12T10:34:52.914Z,7.80
2019-03-12T10:40:09.485Z,7.60
2019-03-12T10:42:53.653Z,7.60
2019-03-12T10:45:33.093Z,7.70
2019-03-12T10:48:03.319Z,7.90
2019-03-12T10:55:28.322Z,7.50
2019-03-12T10:57:56.895Z,7.50
2019-03-12T11:00:25.443Z,7.40
2019-03-12T11:02:54.017Z,7.60
2019-03-12T11:05:22.894Z,7.70
2019-03-12T11:07:51.609Z,7.70
2019-03-12T11:12:48.597Z,7.40
2019-03-12T11:15:17.481Z,7.60
2019-03-12T11:17:50.094Z,7.70
2019-03-12T11:20:24.194Z,7.70
2019-03-12T11:22:54.448Z,7.90
2019-03-12T11:25:27.651Z,8.00
2019-03-12T11:32:49.753Z,7.50
2019-03-12T11:37:46.546Z,8.30
2019-03-12T11:40:23.566Z,8.40
2019-03-12T11:42:52.246Z,8.40
2019-03-12T11:45:34.793Z,8.60
2019-03-12T11:50:21.207Z,8.60
2019-03-12T11:57:48.488Z,8.30
2019-03-12T12:00:24.040Z,8.20
2019-03-12T12:02:59.715Z,8.30
2019-03-12T12:07:51.231Z,8.60
2019-03-12T12:10:19.919Z,8.40
2019-03-12T12:12:48.534Z,8.60
2019-03-12T12:15:17.350Z,8.40
2019-03-12T12:17:49.030Z,8.40
2019-03-12T12:20:28.947Z,8.60
2019-03-12T12:22:46.826Z,8.70
2019-03-12T12:25:19.961Z,8.80
2019-03-12T12:27:48.526Z,8.50
2019-03-12T12:30:19.884Z,8.70
2019-03-12T12:32:48.498Z,9.00
2019-03-12T12:35:17.205Z,9.60
2019-03-12T12:37:45.825Z,9.10
2019-03-12T12:40:21.641Z,9.00
2019-03-12T12:42:50.417Z,9.40
2019-03-12T12:47:48.882Z,9.00
2019-03-12T12:50:17.899Z,9.00
2019-03-12T12:52:46.441Z,8.90
2019-03-12T12:58:15.982Z,9.00
2019-03-12T13:00:49.320Z,9.20
2019-03-12T13:08:44.444Z,9.00
2019-03-12T13:11:13.017Z,9.70
2019-03-12T13:13:41.565Z,8.90
2019-03-12T13:16:10.138Z,9.30
2019-03-12T13:18:38.683Z,9.30
2019-03-12T13:23:36.295Z,9.20
2019-03-12T13:26:05.018Z,9.30
2019-03-12T13:28:33.564Z,9.50
2019-03-12T13:31:02.207Z,9.50
2019-03-12T13:33:30.749Z,9.30
2019-03-12T13:35:59.393Z,9.50
2019-03-12T13:38:27.933Z,9.50
2019-03-12T13:40:56.669Z,9.70
2019-03-12T13:43:25.293Z,9.70
2019-03-12T13:48:39.851Z,9.80
2019-03-12T13:51:11.622Z,9.80
2019-03-12T13:53:51.629Z,9.70
2019-03-12T13:56:23.442Z,9.80
2019-03-12T13:58:55.273Z,9.80
2019-03-12T14:01:25.329Z,9.80
2019-03-12T14:03:53.925Z,10.10
2019-03-12T14:06:24.098Z,10.00
2019-03-12T14:08:52.667Z,9.90
2019-03-12T14:11:21.213Z,10.10
2019-03-12T14:16:18.034Z,10.00
2019-03-12T14:21:14.962Z,9.80
2019-03-12T14:23:49.523Z,10.00
2019-03-12T14:26:18.210Z,10.00
2019-03-12T14:28:46.861Z,9.80
2019-03-12T14:31:15.578Z,9.90
2019-03-12T14:33:44.186Z,10.00
2019-03-12T14:36:33.448Z,10.10
2019-03-12T14:39:20.143Z,10.10
2019-03-12T14:41:49.775Z,10.10
2019-03-12T14:44:22.783Z,10.60
2019-03-12T14:46:52.915Z,9.80
2019-03-12T14:49:21.506Z,9.80
2019-03-12T14:54:31.765Z,9.80
2019-03-12T14:59:28.627Z,9.90
2019-03-12T15:01:57.270Z,9.90
2019-03-12T15:04:25.809Z,9.80
2019-03-12T15:06:54.457Z,10.00
2019-03-12T15:09:23.077Z,10.10
2019-03-12T15:11:51.616Z,9.60
2019-03-12T15:17:04.419Z,9.60
2019-03-12T15:19:32.929Z,9.60
2019-03-12T15:22:01.547Z,9.80
2019-03-12T15:24:30.189Z,9.80
2019-03-12T15:26:58.730Z,9.70
2019-03-12T15:29:27.301Z,9.70
2019-03-12T15:32:04.142Z,9.40
2019-03-12T15:34:26.077Z,10.00
2019-03-12T15:36:54.676Z,9.40
2019-03-12T15:39:23.249Z,9.00
2019-03-12T15:41:51.789Z,9.00
2019-03-12T15:44:20.496Z,9.10
2019-03-12T15:46:49.111Z,9.10
2019-03-12T15:49:17.681Z,9.10
2019-03-12T15:51:46.227Z,9.00
2019-03-12T15:54:14.793Z,9.10
2019-03-12T15:56:43.338Z,8.80
2019-03-12T15:59:11.915Z,8.90
2019-03-12T16:01:40.457Z,8.70
2019-03-12T16:09:32.085Z,8.60
2019-03-12T16:12:03.362Z,8.80
2019-03-12T16:17:04.498Z,8.50
2019-03-12T16:22:01.294Z,8.60
2019-03-12T16:24:29.861Z,8.50
2019-03-12T16:26:58.406Z,8.50
2019-03-12T16:29:26.981Z,8.40
2019-03-12T16:34:23.770Z,8.20
2019-03-12T16:36:52.321Z,8.30
2019-03-12T16:39:20.896Z,8.50
2019-03-12T16:41:49.441Z,8.50
2019-03-12T16:44:18.015Z,8.30
2019-03-12T16:46:46.570Z,7.80
2019-03-12T16:51:43.357Z,8.30
2019-03-12T16:56:45.328Z,8.00
2019-03-12T16:59:10.385Z,8.00
2019-03-12T17:01:38.947Z,7.90
2019-03-12T17:06:41.923Z,7.90
2019-03-12T17:09:10.796Z,7.60
2019-03-12T17:11:39.362Z,7.50
2019-03-12T17:14:08.083Z,7.40
2019-03-12T17:16:36.674Z,7.50
2019-03-12T17:21:33.489Z,7.70
2019-03-12T17:24:04.705Z,7.80
2019-03-12T17:26:33.342Z,7.60
2019-03-12T17:31:30.197Z,7.70
2019-03-12T17:33:58.741Z,7.50
2019-03-12T17:36:28.657Z,7.60
2019-03-12T17:38:57.363Z,7.50
2019-03-12T17:41:25.937Z,7.40
2019-03-12T17:43:57.577Z,7.10
2019-03-12T17:46:24.717Z,7.60
2019-03-12T17:48:53.261Z,7.00
2019-03-12T17:56:18.372Z,7.20
2019-03-12T17:58:46.977Z,7.30
2019-03-12T18:01:15.549Z,7.30
2019-03-12T18:03:44.172Z,7.30
2019-03-12T18:06:12.740Z,7.20
2019-03-12T18:08:41.289Z,7.10
2019-03-12T18:11:09.850Z,7.10
2019-03-12T18:13:38.398Z,7.10
2019-03-12T18:16:07.114Z,6.90
2019-03-12T18:18:35.661Z,6.90
2019-03-12T18:21:04.235Z,7.00
2019-03-12T18:23:33.075Z,6.90
2019-03-12T18:26:02.773Z,6.50
2019-03-12T18:28:31.317Z,7.00
2019-03-12T18:33:28.118Z,7.00
2019-03-12T18:35:56.689Z,6.60
2019-03-12T18:38:25.238Z,6.40
2019-03-12T18:40:53.811Z,6.50
2019-03-12T18:45:50.565Z,6.70
2019-03-12T18:48:19.141Z,6.70
2019-03-12T18:50:47.690Z,6.20
2019-03-12T18:53:16.262Z,6.70
2019-03-12T18:55:46.346Z,6.60
2019-03-12T18:58:14.989Z,6.70
2019-03-12T19:00:48.701Z,6.60
2019-03-12T19:03:16.597Z,6.70
2019-03-12T19:05:45.157Z,6.40
2019-03-12T19:10:42.150Z,6.50
2019-03-12T19:13:10.867Z,6.30
2019-03-12T19:15:39.409Z,6.40
2019-03-12T19:18:07.977Z,6.50
2019-03-12T19:20:36.521Z,6.50
2019-03-12T19:23:05.237Z,6.40
2019-03-12T19:28:12.720Z,7.00
2019-03-12T19:30:41.374Z,6.20
2019-03-12T19:33:11.662Z,6.30
2019-03-12T19:35:40.214Z,6.10
2019-03-12T19:38:08.935Z,6.10
2019-03-12T19:40:51.990Z,6.20
2019-03-12T19:43:20.640Z,6.20
2019-03-12T19:45:49.237Z,6.20
2019-03-12T19:48:17.974Z,5.90
2019-03-12T19:50:46.517Z,6.00
2019-03-12T20:00:41.698Z,6.00
2019-03-12T20:03:14.732Z,5.90
2019-03-12T20:05:40.657Z,6.10
2019-03-12T20:08:09.232Z,6.00
2019-03-12T20:11:12.610Z,6.60
2019-03-12T20:13:58.858Z,6.00
2019-03-12T20:17:08.406Z,6.00
2019-03-12T20:19:47.850Z,5.90
2019-03-12T20:22:36.259Z,5.90
2019-03-12T20:25:42.767Z,6.00
2019-03-12T20:28:32.792Z,5.70
2019-03-12T20:31:27.258Z,5.60
2019-03-12T20:34:33.929Z,5.50
2019-03-12T20:37:39.220Z,5.80
2019-03-12T20:40:28.930Z,5.80
2019-03-12T20:43:20.040Z,5.80
2019-03-12T20:46:17.507Z,5.50
2019-03-12T20:49:11.938Z,5.40
2019-03-12T20:55:01.482Z,5.40
2019-03-12T20:57:47.635Z,5.40
2019-03-12T21:00:37.070Z,5.40
2019-03-12T21:03:26.850Z,5.30
2019-03-12T21:06:32.127Z,5.40
2019-03-12T21:09:20.395Z,5.20
2019-03-12T21:12:08.407Z,5.30
2019-03-12T21:15:13.524Z,5.70
2019-03-12T21:20:42.098Z,5.20
2019-03-12T21:23:13.733Z,4.90
2019-03-12T21:26:08.041Z,4.90
2019-03-12T21:28:59.460Z,5.10
2019-03-12T21:31:28.040Z,5.40
2019-03-12T21:33:56.618Z,5.20
2019-03-12T21:36:26.435Z,5.50
2019-03-12T21:38:55.010Z,5.20
2019-03-12T21:41:23.662Z,4.70
2019-03-12T21:46:20.518Z,4.90
2019-03-12T21:48:49.144Z,4.90
2019-03-12T21:51:17.717Z,4.90
2019-03-12T21:53:46.253Z,5.00
2019-03-12T21:56:14.833Z,4.90
2019-03-12T21:58:43.377Z,4.80
2019-03-12T22:03:40.158Z,4.70
2019-03-12T22:06:08.726Z,4.80
2019-03-12T22:08:37.274Z,4.90
2019-03-12T22:11:05.848Z,4.80
2019-03-12T22:13:34.394Z,5.20
2019-03-12T22:16:02.970Z,4.80
2019-03-12T22:18:31.580Z,4.90
2019-03-12T22:21:00.157Z,4.70
2019-03-12T22:23:30.334Z,4.80
2019-03-12T22:25:58.906Z,4.70
2019-03-12T22:28:27.444Z,4.80
2019-03-12T22:38:20.763Z,4.80
2019-03-12T22:40:49.337Z,4.90
2019-03-12T22:43:17.881Z,4.90
2019-03-12T22:45:46.519Z,4.90
2019-03-12T22:55:39.737Z,4.50
2019-03-12T22:58:08.382Z,4.60
2019-03-12T23:00:38.194Z,4.70
2019-03-12T23:03:06.902Z,4.80
2019-03-12T23:05:35.446Z,4.80
2019-03-12T23:10:32.545Z,4.60
2019-03-12T23:13:01.109Z,4.70
2019-03-12T23:15:29.993Z,4.70
2019-03-12T23:17:58.635Z,4.80
2019-03-12T23:20:27.170Z,5.00
2019-03-12T23:22:56.213Z,4.90
2019-03-12T23:25:24.757Z,5.20
2019-03-12T23:30:23.357Z,4.90
2019-03-12T23:32:52.668Z,4.90
2019-03-12T23:35:21.279Z,4.90
2019-03-12T23:37:49.992Z,4.90
2019-03-12T23:40:19.266Z,5.10
2019-03-12T23:42:47.917Z,5.00
2019-03-12T23:45:17.188Z,5.10
2019-03-12T23:47:46.211Z,5.10
2019-03-12T23:50:16.561Z,5.50
